Time;durP1;ratioP1;P1;durP2;ratioP2;P2;SDS_P1;SDS_P2;PMS_P1;PMS_P2;Temp;Humidity;BMP_temperature;BMP_pressure;BME280_temperature;BME280_humidity;BME280_pressure;Samples;Min_cycle;Max_cycle;Signal;HPM_P1;HPM_P2
2020/12/12 00:03:01;;;;;;;20.00;16.23;;;5.10;46.50;;;;;;10378633;22;20222;-71
2020/12/12 00:08:03;;;;;;;18.37;15.67;;;5.10;46.40;;;;;;10359446;28;20229;-70
2020/12/12 00:13:08;;;;;;;18.63;15.03;;;5.20;46.40;;;;;;10388086;28;20226;-70
2020/12/12 00:18:10;;;;;;;17.83;15.77;;;5.20;46.30;;;;;;10359234;28;20234;-70
2020/12/12 00:23:12;;;;;;;17.77;15.73;;;5.30;46.30;;;;;;10389685;28;20320;-70
2020/12/12 00:28:15;;;;;;;17.73;15.87;;;5.40;46.40;;;;;;10406220;28;20221;-70
2020/12/12 00:33:17;;;;;;;18.57;15.70;;;5.50;46.30;;;;;;10404817;28;20245;-70
2020/12/12 00:38:20;;;;;;;19.60;16.83;;;5.50;46.20;;;;;;10402335;28;20244;-70
2020/12/12 00:43:23;;;;;;;17.57;15.67;;;5.50;46.10;;;;;;10406749;28;20240;-70
2020/12/12 00:48:26;;;;;;;18.10;15.77;;;5.60;46.20;;;;;;10406022;28;20769;-70
2020/12/12 00:53:28;;;;;;;17.00;15.20;;;5.60;45.90;;;;;;10408844;28;20229;-70
2020/12/12 00:58:31;;;;;;;18.17;15.83;;;5.60;45.90;;;;;;10405748;28;20232;-70
2020/12/12 01:03:33;;;;;;;17.83;15.83;;;5.60;45.90;;;;;;10405631;28;20604;-70
2020/12/12 01:08:35;;;;;;;19.37;17.20;;;5.60;45.90;;;;;;10400572;28;20226;-70
2020/12/12 01:13:38;;;;;;;18.47;16.50;;;5.60;45.70;;;;;;10404475;28;20269;-70
2020/12/12 01:18:41;;;;;;;21.57;18.17;;;5.60;45.90;;;;;;10400049;28;20756;-70
2020/12/12 01:23:43;;;;;;;19.20;16.53;;;5.50;45.70;;;;;;10400495;28;20230;-70
2020/12/12 01:28:47;;;;;;;19.10;16.70;;;5.50;45.90;;;;;;10406166;28;20340;-70
2020/12/12 01:33:50;;;;;;;19.97;17.43;;;5.40;45.90;;;;;;10395877;28;20225;-70
2020/12/12 01:38:52;;;;;;;18.17;16.13;;;5.40;45.90;;;;;;10406103;28;20221;-70
2020/12/12 01:43:55;;;;;;;18.57;16.67;;;5.40;46.00;;;;;;10399553;28;20221;-70
2020/12/12 01:48:57;;;;;;;18.17;16.23;;;5.40;46.10;;;;;;10405683;28;20592;-70
2020/12/12 01:53:59;;;;;;;18.37;16.40;;;5.40;46.00;;;;;;10395018;28;20248;-70
2020/12/12 01:59:02;;;;;;;20.53;17.17;;;5.40;45.90;;;;;;10403988;28;20236;-70
2020/12/12 02:04:06;;;;;;;18.87;16.63;;;5.40;45.90;;;;;;10397306;28;20225;-70
2020/12/12 02:09:09;;;;;;;19.03;16.70;;;5.30;45.90;;;;;;10404755;28;20222;-70
2020/12/12 02:14:12;;;;;;;18.33;16.27;;;5.40;46.00;;;;;;10398119;28;20228;-70
2020/12/12 02:19:15;;;;;;;15.57;13.90;;;5.30;46.00;;;;;;10404676;28;20639;-69
2020/12/12 02:24:18;;;;;;;17.63;15.77;;;5.30;46.00;;;;;;10396455;28;20226;-70
2020/12/12 02:29:20;;;;;;;17.30;15.00;;;5.30;46.00;;;;;;10394974;28;20228;-69
2020/12/12 02:34:22;;;;;;;18.67;16.03;;;5.20;46.10;;;;;;10404779;28;20225;-70
2020/12/12 02:39:26;;;;;;;17.57;15.57;;;5.20;46.00;;;;;;10400713;28;20709;-70
2020/12/12 02:44:28;;;;;;;17.13;14.73;;;5.20;46.10;;;;;;10402002;28;20225;-70
2020/12/12 02:49:30;;;;;;;18.40;15.90;;;5.20;46.10;;;;;;10399968;28;20721;-69
2020/12/12 02:54:33;;;;;;;21.03;18.00;;;5.10;46.00;;;;;;10394506;28;20226;-70
2020/12/12 02:59:35;;;;;;;19.73;16.00;;;5.10;46.10;;;;;;10395269;28;20544;-69
2020/12/12 03:04:37;;;;;;;17.83;15.93;;;5.10;46.10;;;;;;10397222;28;20221;-70
2020/12/12 03:09:40;;;;;;;20.80;16.87;;;5.10;46.30;;;;;;10410709;28;23381;-69
2020/12/12 03:14:42;;;;;;;18.40;16.40;;;5.20;46.30;;;;;;10407784;28;20236;-70
2020/12/12 03:19:45;;;;;;;17.37;15.53;;;5.30;46.30;;;;;;10403939;28;20686;-70
2020/12/12 03:24:48;;;;;;;17.83;15.93;;;5.30;46.20;;;;;;10410083;28;20222;-70
2020/12/12 03:29:50;;;;;;;18.87;16.43;;;5.40;46.10;;;;;;10409366;28;20228;-70
2020/12/12 03:35:05;;;;;;;18.10;15.93;;;5.30;45.90;;;;;;10399132;28;20746;-70
2020/12/12 03:40:08;;;;;;;17.80;15.93;;;5.30;45.90;;;;;;10411607;28;20228;-70
2020/12/12 03:45:10;;;;;;;17.57;15.33;;;5.30;45.90;;;;;;10413677;28;20454;-70
2020/12/12 03:50:13;;;;;;;16.93;15.10;;;5.20;46.00;;;;;;10408001;28;20234;-70
2020/12/12 03:55:16;;;;;;;15.43;13.83;;;5.20;46.80;;;;;;10420139;28;20726;-70
2020/12/12 04:00:18;;;;;;;16.90;14.80;;;5.20;46.30;;;;;;10405799;28;20229;-70
2020/12/12 04:05:20;;;;;;;19.53;15.57;;;5.30;46.40;;;;;;10407183;28;20222;-70
2020/12/12 04:10:24;;;;;;;16.93;13.67;;;5.30;46.10;;;;;;10416284;28;20573;-70
2020/12/12 04:15:26;;;;;;;15.37;13.73;;;5.30;46.10;;;;;;10399778;28;20221;-70
2020/12/12 04:20:28;;;;;;;17.53;15.20;;;5.40;46.10;;;;;;10409068;28;20225;-70
2020/12/12 04:25:31;;;;;;;17.20;15.37;;;5.40;46.20;;;;;;10395106;28;20237;-70
2020/12/12 04:30:34;;;;;;;16.77;14.47;;;5.40;46.20;;;;;;10416908;28;20313;-70
2020/12/12 04:35:36;;;;;;;18.20;16.17;;;5.50;46.30;;;;;;10405900;28;20251;-70
2020/12/12 04:40:39;;;;;;;17.03;15.20;;;5.50;46.00;;;;;;10409286;28;20224;-70
2020/12/12 04:45:43;;;;;;;17.67;15.80;;;5.60;45.90;;;;;;10412307;28;20608;-70
2020/12/12 04:50:47;;;;;;;17.73;15.67;;;5.50;45.90;;;;;;10413496;28;20320;-70
2020/12/12 04:55:51;;;;;;;19.17;16.40;;;5.50;45.90;;;;;;10416703;28;20220;-70
2020/12/12 05:00:55;;;;;;;18.17;16.13;;;5.50;45.90;;;;;;10406246;28;20232;-70
2020/12/12 05:05:57;;;;;;;17.90;15.10;;;5.50;46.00;;;;;;10405766;28;20586;-70
2020/12/12 05:11:02;;;;;;;17.87;15.97;;;5.50;46.00;;;;;;10428127;28;20226;-71
2020/12/12 05:16:05;;;;;;;19.53;16.13;;;5.50;46.10;;;;;;10409193;28;20225;-70
2020/12/12 05:21:07;;;;;;;18.57;15.67;;;5.50;46.00;;;;;;10418984;28;20230;-71
2020/12/12 05:26:12;;;;;;;19.33;16.93;;;5.50;46.00;;;;;;10394840;28;20240;-71
2020/12/12 05:31:16;;;;;;;19.67;15.87;;;5.60;46.10;;;;;;10415964;28;20235;-75
2020/12/12 05:36:23;;;;;;;16.90;14.83;;;5.60;45.90;;;;;;10418487;28;20225;-75
2020/12/12 05:41:27;;;;;;;18.80;16.80;;;5.60;45.90;;;;;;10426351;28;20604;-75
2020/12/12 05:46:30;;;;;;;19.10;17.00;;;5.60;45.80;;;;;;10405271;28;20225;-75
2020/12/12 05:51:32;;;;;;;21.63;16.60;;;5.60;45.70;;;;;;10413855;28;20236;-75
2020/12/12 05:56:36;;;;;;;17.93;15.47;;;5.60;45.80;;;;;;10425144;28;20608;-75
2020/12/12 06:01:42;;;;;;;21.43;17.60;;;5.50;46.00;;;;;;10420466;23;20252;-68
2020/12/12 06:06:56;;;;;;;21.90;17.07;;;5.60;46.10;;;;;;10400302;28;20229;-69
2020/12/12 06:12:00;;;;;;;18.47;15.33;;;5.60;45.90;;;;;;10402242;28;20229;-69
2020/12/12 06:17:06;;;;;;;19.57;16.87;;;5.60;46.10;;;;;;10443742;28;20224;-72
2020/12/12 06:22:12;;;;;;;19.27;16.47;;;5.60;46.20;;;;;;10437125;28;20225;-69
2020/12/12 06:27:18;;;;;;;14.10;12.57;;;5.70;46.20;;;;;;10442915;28;20228;-72
2020/12/12 06:32:21;;;;;;;18.07;15.67;;;5.70;46.10;;;;;;10437739;28;20232;-73
2020/12/12 06:37:32;;;;;;;16.73;14.93;;;5.80;46.20;;;;;;10445005;28;20239;-72
2020/12/12 06:42:37;;;;;;;19.33;17.13;;;5.90;46.10;;;;;;10445786;28;20233;-69
2020/12/12 06:47:41;;;;;;;19.77;16.90;;;5.90;45.80;;;;;;10448128;28;20303;-72
2020/12/12 06:52:44;;;;;;;20.07;17.40;;;5.90;45.70;;;;;;10451388;28;20225;-73
2020/12/12 06:57:48;;;;;;;19.37;16.07;;;5.80;45.60;;;;;;10448237;28;20216;-73
2020/12/12 07:02:54;;;;;;;18.50;16.53;;;5.80;45.70;;;;;;10449336;28;20220;-68
2020/12/12 07:08:04;;;;;;;21.67;18.07;;;5.80;45.70;;;;;;10452590;28;20217;-73
2020/12/12 07:13:08;;;;;;;20.67;17.10;;;5.70;45.70;;;;;;10446467;28;20217;-69
2020/12/12 07:18:11;;;;;;;19.40;16.57;;;5.70;45.80;;;;;;10444665;28;20220;-72
2020/12/12 07:23:13;;;;;;;22.13;18.17;;;5.70;45.70;;;;;;10449929;28;20231;-72
2020/12/12 07:28:16;;;;;;;20.63;17.53;;;5.70;45.60;;;;;;10447499;28;20863;-72
2020/12/12 07:33:18;;;;;;;19.97;16.63;;;5.70;45.80;;;;;;10447172;28;20225;-73
2020/12/12 07:38:21;;;;;;;20.47;18.10;;;5.60;45.90;;;;;;10449802;28;20232;-73
2020/12/12 07:43:24;;;;;;;21.23;18.10;;;5.70;46.00;;;;;;10445801;28;20275;-68
2020/12/12 07:48:27;;;;;;;20.40;18.10;;;5.70;45.90;;;;;;10450933;28;20224;-68
2020/12/12 07:53:29;;;;;;;22.40;18.40;;;5.70;46.60;;;;;;10446829;28;20881;-73
2020/12/12 07:58:35;;;;;;;19.37;16.17;;;5.70;45.80;;;;;;10447243;28;20715;-68
2020/12/12 08:03:46;;;;;;;21.20;16.77;;;5.70;45.90;;;;;;10442445;28;20587;-72
2020/12/12 08:08:55;;;;;;;19.80;17.67;;;5.70;45.90;;;;;;10442413;28;20225;-71
2020/12/12 08:14:03;;;;;;;20.57;16.33;;;5.60;45.90;;;;;;10446001;28;20226;-72
2020/12/12 08:19:05;;;;;;;21.17;17.57;;;5.50;45.90;;;;;;10441902;28;20213;-71
2020/12/12 08:24:08;;;;;;;20.27;17.00;;;5.50;45.90;;;;;;10446844;28;20228;-71
2020/12/12 08:29:11;;;;;;;18.03;15.40;;;5.50;46.00;;;;;;10448992;28;20229;-71
2020/12/12 08:34:19;;;;;;;20.43;16.67;;;5.50;46.30;;;;;;10446075;28;20232;-72
2020/12/12 08:39:26;;;;;;;22.20;17.80;;;5.50;46.30;;;;;;10442367;28;20235;-71
2020/12/12 08:44:29;;;;;;;20.33;17.60;;;5.50;46.30;;;;;;10420936;28;20601;-73
2020/12/12 08:49:55;;;;;;;20.20;16.47;;;5.50;46.30;;;;;;10436848;28;20232;-71
2020/12/12 08:54:58;;;;;;;18.90;16.27;;;5.50;46.30;;;;;;10440946;28;20599;-72
2020/12/12 09:00:04;;;;;;;20.67;17.90;;;5.60;46.40;;;;;;10437700;28;20243;-71
2020/12/12 09:05:10;;;;;;;20.27;17.03;;;5.60;46.50;;;;;;10442252;28;20604;-72
2020/12/12 09:10:14;;;;;;;21.80;18.33;;;5.70;46.40;;;;;;10441486;28;20778;-72
2020/12/12 09:15:18;;;;;;;18.13;15.80;;;5.70;46.50;;;;;;10432100;28;20226;-72
2020/12/12 09:20:20;;;;;;;19.37;16.47;;;5.80;46.60;;;;;;10440050;28;20316;-72
2020/12/12 09:25:22;;;;;;;20.07;17.40;;;5.80;46.60;;;;;;10445681;28;20221;-72
2020/12/12 09:30:25;;;;;;;20.60;17.57;;;5.90;46.50;;;;;;10433517;28;20227;-72
2020/12/12 09:35:27;;;;;;;21.50;18.23;;;6.00;46.70;;;;;;10444927;28;20227;-72
2020/12/12 09:40:30;;;;;;;21.43;18.13;;;6.00;46.50;;;;;;10433946;28;20698;-72
2020/12/12 09:45:33;;;;;;;21.40;18.67;;;6.00;46.40;;;;;;10436193;28;20308;-73
2020/12/12 09:50:35;;;;;;;19.57;17.33;;;6.10;46.40;;;;;;10437178;28;20744;-73
2020/12/12 09:55:39;;;;;;;22.77;18.93;;;6.10;46.60;;;;;;10434690;28;20225;-73
2020/12/12 10:00:42;;;;;;;21.43;18.03;;;6.10;46.50;;;;;;10428461;28;20240;-73
2020/12/12 10:05:44;;;;;;;21.73;18.50;;;6.10;46.50;;;;;;10438924;28;20592;-73
2020/12/12 10:10:46;;;;;;;20.93;17.70;;;6.20;46.70;;;;;;10422250;28;20327;-73
2020/12/12 10:15:50;;;;;;;22.03;17.67;;;6.20;46.80;;;;;;10436312;28;20236;-72
2020/12/12 10:20:52;;;;;;;20.77;17.53;;;6.30;46.80;;;;;;10432971;28;20654;-72
2020/12/12 10:25:54;;;;;;;21.13;18.10;;;6.30;46.60;;;;;;10429000;28;20217;-73
2020/12/12 10:30:57;;;;;;;19.87;17.40;;;6.30;46.70;;;;;;10433066;28;20221;-73
2020/12/12 10:35:59;;;;;;;21.70;18.70;;;6.40;46.90;;;;;;10436252;28;22530;-72
2020/12/12 10:41:10;;;;;;;21.70;18.27;;;6.40;46.90;;;;;;10438556;28;20227;-71
2020/12/12 10:46:13;;;;;;;21.23;17.93;;;6.50;46.70;;;;;;10427556;28;20221;-72
2020/12/12 10:51:16;;;;;;;20.57;18.17;;;6.50;46.80;;;;;;10429503;28;20241;-71
2020/12/12 10:56:19;;;;;;;18.93;16.97;;;6.50;46.90;;;;;;10435543;28;20769;-71
2020/12/12 11:01:22;;;;;;;21.07;18.03;;;6.60;47.00;;;;;;10432621;28;20246;-72
2020/12/12 11:06:24;;;;;;;19.43;17.20;;;6.60;46.80;;;;;;10425769;28;20296;-72
2020/12/12 11:11:27;;;;;;;18.70;16.70;;;6.60;46.90;;;;;;10438109;28;20244;-72
2020/12/12 11:16:30;;;;;;;16.40;14.70;;;6.70;47.00;;;;;;10430153;28;20224;-72
2020/12/12 11:21:33;;;;;;;17.77;15.93;;;6.70;47.00;;;;;;10441054;28;20859;-71
2020/12/12 11:26:35;;;;;;;17.73;15.83;;;6.80;47.10;;;;;;10425624;28;20244;-71
2020/12/12 11:31:41;;;;;;;19.13;17.13;;;6.90;47.10;;;;;;10440862;28;20235;-71
2020/12/12 11:42:28;;;;;;;19.03;15.97;;;7.00;47.00;;;;;;10442818;28;20229;-71
2020/12/12 11:47:32;;;;;;;18.50;16.43;;;7.10;46.80;;;;;;10433047;28;20239;-68
2020/12/12 11:52:36;;;;;;;16.73;14.83;;;7.10;46.90;;;;;;10438560;28;20313;-68
2020/12/12 11:57:39;;;;;;;39.27;30.00;;;7.10;46.80;;;;;;10446298;28;20231;-68
2020/12/12 12:02:43;;;;;;;24.00;19.83;;;7.10;46.80;;;;;;10436717;28;20221;-69
2020/12/12 12:07:47;;;;;;;20.07;17.50;;;7.10;47.00;;;;;;10449555;28;20255;-68
2020/12/12 12:12:49;;;;;;;16.80;15.00;;;7.10;46.90;;;;;;10438739;28;20229;-68
2020/12/12 12:17:52;;;;;;;19.40;17.30;;;7.20;47.40;;;;;;10448096;28;20235;-69
2020/12/12 12:22:54;;;;;;;20.43;17.00;;;7.20;47.40;;;;;;10439003;28;20248;-69
2020/12/12 12:27:56;;;;;;;22.67;19.93;;;7.30;47.20;;;;;;10438245;28;20232;-72
2020/12/12 12:32:59;;;;;;;20.03;17.37;;;7.30;47.10;;;;;;10442184;28;20233;-72
2020/12/12 12:38:01;;;;;;;19.67;16.97;;;7.30;47.10;;;;;;10437516;28;20221;-72
2020/12/12 12:43:03;;;;;;;18.27;16.27;;;7.30;47.20;;;;;;10436870;28;20217;-72
2020/12/12 12:48:07;;;;;;;18.67;16.57;;;7.40;47.20;;;;;;10450167;28;20611;-72
2020/12/12 12:53:12;;;;;;;19.03;17.00;;;7.40;47.20;;;;;;10443123;28;20278;-72
2020/12/12 12:58:14;;;;;;;18.77;16.47;;;7.40;47.10;;;;;;10435572;28;20609;-72
2020/12/12 13:03:17;;;;;;;19.43;16.57;;;7.50;47.10;;;;;;10451056;28;20625;-72
2020/12/12 13:08:19;;;;;;;18.50;16.30;;;7.50;47.20;;;;;;10440796;28;20237;-72
2020/12/12 13:13:22;;;;;;;16.80;14.70;;;7.50;47.20;;;;;;10442610;28;20599;-72
2020/12/12 13:18:44;;;;;;;17.80;15.43;;;7.60;47.40;;;;;;10443316;28;20221;-72
2020/12/12 13:23:46;;;;;;;16.50;14.67;;;7.60;47.40;;;;;;10441984;28;20221;-72
2020/12/12 13:34:09;;;;;;;16.30;14.60;;;7.70;47.50;;;;;;10434072;28;20244;-72
2020/12/12 13:39:13;;;;;;;16.53;14.73;;;7.70;47.60;;;;;;10434462;28;20320;-72
2020/12/12 13:44:16;;;;;;;16.00;14.40;;;7.80;47.60;;;;;;10443111;28;20229;-72
2020/12/12 13:49:19;;;;;;;17.47;14.87;;;7.80;47.60;;;;;;10439705;28;20225;-73
2020/12/12 13:54:21;;;;;;;16.73;14.93;;;7.80;47.70;;;;;;10434222;28;20325;-72
2020/12/12 13:59:25;;;;;;;16.00;14.30;;;7.90;47.60;;;;;;10434117;28;20225;-72
2020/12/12 14:04:28;;;;;;;14.90;12.97;;;7.90;47.60;;;;;;10438847;28;20235;-72
2020/12/12 14:25:24;;;;;;;15.50;13.90;;;8.00;47.90;;;;;;10437747;28;20575;-72
2020/12/12 14:30:26;;;;;;;17.07;15.27;;;8.00;47.90;;;;;;10427778;28;20299;-72
2020/12/12 14:35:29;;;;;;;19.63;16.93;;;8.00;47.90;;;;;;10446334;28;20290;-72
2020/12/12 14:40:31;;;;;;;25.40;18.57;;;7.90;48.00;;;;;;10422165;28;20247;-73
2020/12/12 14:45:35;;;;;;;19.80;16.47;;;8.00;48.00;;;;;;10439575;28;20685;-73
2020/12/12 14:50:39;;;;;;;16.33;14.33;;;8.00;48.10;;;;;;10442326;28;20298;-73
2020/12/12 14:55:42;;;;;;;17.47;15.57;;;8.00;48.10;;;;;;10443603;28;20228;-73
2020/12/12 15:00:44;;;;;;;17.13;15.33;;;8.00;47.90;;;;;;10434348;28;20311;-73
2020/12/12 15:05:47;;;;;;;18.13;11.63;;;8.00;47.90;;;;;;10443083;28;20225;-68
2020/12/12 15:10:49;;;;;;;28.37;21.33;;;7.90;49.10;;;;;;10442286;28;20652;-68
2020/12/12 15:15:51;;;;;;;120.50;107.30;;;8.00;49.60;;;;;;10449907;28;20229;-68
2020/12/12 15:20:54;;;;;;;52.03;46.80;;;8.10;48.80;;;;;;10442276;28;20221;-68
2020/12/12 15:25:56;;;;;;;43.30;38.80;;;8.20;48.40;;;;;;10444090;28;20219;-73
2020/12/12 15:30:59;;;;;;;27.60;24.67;;;8.20;48.20;;;;;;10447789;28;20232;-73
2020/12/12 15:36:02;;;;;;;29.77;25.73;;;8.20;47.90;;;;;;10447062;28;20213;-71
2020/12/12 15:41:05;;;;;;;22.20;18.60;;;8.20;48.00;;;;;;10449661;28;20231;-73
2020/12/12 15:46:07;;;;;;;18.30;16.23;;;8.20;48.10;;;;;;10438229;28;20222;-72
2020/12/12 15:51:11;;;;;;;19.47;17.03;;;8.20;48.00;;;;;;10431513;28;20228;-72
2020/12/12 15:56:13;;;;;;;18.30;15.53;;;8.20;48.10;;;;;;10436304;28;20226;-73
2020/12/12 16:01:15;;;;;;;17.63;15.83;;;8.20;47.90;;;;;;10442497;28;20233;-69
2020/12/12 16:06:18;;;;;;;17.10;15.30;;;8.20;47.90;;;;;;10443094;28;20316;-73
2020/12/12 16:11:20;;;;;;;18.00;15.27;;;8.20;48.90;;;;;;10433992;28;20576;-73
2020/12/12 16:16:23;;;;;;;18.30;16.37;;;8.30;48.40;;;;;;10432551;28;20225;-73
2020/12/12 16:21:26;;;;;;;17.53;15.50;;;8.30;49.00;;;;;;10426304;28;20241;-73
2020/12/12 16:26:29;;;;;;;19.27;17.17;;;8.40;48.80;;;;;;10448258;28;20607;-73
2020/12/12 16:31:35;;;;;;;19.87;17.10;;;8.40;48.30;;;;;;10440704;28;20229;-72
2020/12/12 16:36:40;;;;;;;20.33;18.10;;;8.40;48.10;;;;;;10434110;28;20304;-72
2020/12/12 16:41:42;;;;;;;25.33;22.73;;;8.40;47.90;;;;;;10440187;28;20229;-74
2020/12/12 16:46:44;;;;;;;27.23;24.33;;;8.40;49.30;;;;;;10420847;28;20232;-74
2020/12/12 16:51:48;;;;;;;26.53;23.80;;;8.50;48.80;;;;;;10441913;28;20260;-74
2020/12/12 16:56:52;;;;;;;23.47;20.70;;;8.50;48.40;;;;;;10445732;28;20217;-73
2020/12/12 17:01:54;;;;;;;23.33;20.73;;;8.50;48.10;;;;;;10440356;28;20229;-74
2020/12/12 17:06:57;;;;;;;23.30;19.13;;;8.50;48.10;;;;;;10430480;28;20248;-74
2020/12/12 17:12:02;;;;;;;27.07;24.33;;;8.50;48.00;;;;;;10433701;28;20226;-75
2020/12/12 17:17:04;;;;;;;30.07;26.97;;;8.50;47.90;;;;;;10430743;28;20247;-74
2020/12/12 17:22:11;;;;;;;25.67;23.10;;;8.50;47.90;;;;;;10447499;28;20234;-73
2020/12/12 17:27:13;;;;;;;25.27;22.60;;;8.50;48.10;;;;;;10440867;28;20229;-71
2020/12/12 17:32:15;;;;;;;23.27;20.80;;;8.50;47.90;;;;;;10441062;28;20227;-71
2020/12/12 17:37:18;;;;;;;26.23;23.57;;;8.50;47.90;;;;;;10446912;28;20225;-69
2020/12/12 17:42:20;;;;;;;34.70;29.83;;;8.50;47.90;;;;;;10443018;28;20225;-70
2020/12/12 17:47:23;;;;;;;32.80;28.50;;;8.50;47.90;;;;;;10443534;28;20227;-70
2020/12/12 17:52:26;;;;;;;23.33;19.30;;;8.40;47.80;;;;;;10444561;28;20229;-70
2020/12/12 17:57:30;;;;;;;22.53;20.20;;;8.40;47.90;;;;;;10446657;28;20224;-71
2020/12/12 18:02:36;;;;;;;89.93;56.17;;;8.40;47.90;;;;;;10454743;23;20596;-77
2020/12/12 18:07:40;;;;;;;50.20;40.17;;;8.40;48.20;;;;;;10450860;28;20228;-78
2020/12/12 18:12:45;;;;;;;33.03;25.07;;;8.40;48.10;;;;;;10457731;28;20256;-78
2020/12/12 18:17:47;;;;;;;25.83;19.87;;;8.40;48.10;;;;;;10450315;28;20292;-78
2020/12/12 18:22:52;;;;;;;22.40;18.80;;;8.40;48.00;;;;;;10450311;28;20229;-78
2020/12/12 18:27:55;;;;;;;20.23;17.43;;;8.40;48.20;;;;;;10462255;28;20229;-78
2020/12/12 18:32:59;;;;;;;18.50;16.27;;;8.40;48.10;;;;;;10450839;28;20247;-78
2020/12/12 18:38:07;;;;;;;20.57;18.17;;;8.40;48.00;;;;;;10459496;28;20256;-77
2020/12/12 18:43:09;;;;;;;20.17;18.07;;;8.40;48.20;;;;;;10467495;28;20315;-77
2020/12/12 18:48:11;;;;;;;22.73;20.20;;;8.40;48.00;;;;;;10463559;28;20307;-78
2020/12/12 18:53:15;;;;;;;20.40;18.30;;;8.40;48.10;;;;;;10464390;28;20602;-80
2020/12/12 18:58:17;;;;;;;21.67;19.30;;;8.40;48.20;;;;;;10470375;28;20239;-77
2020/12/12 19:03:19;;;;;;;22.40;20.03;;;8.40;48.20;;;;;;10482469;28;20598;-78
2020/12/12 19:08:22;;;;;;;22.27;19.93;;;8.40;48.10;;;;;;10464038;28;20231;-78
2020/12/12 19:13:25;;;;;;;21.43;19.13;;;8.40;48.20;;;;;;10475034;28;20221;-79
2020/12/12 19:18:28;;;;;;;21.37;18.73;;;8.50;48.20;;;;;;10462310;28;20228;-75
2020/12/12 19:23:31;;;;;;;20.00;17.37;;;8.50;48.20;;;;;;10458413;28;20225;-77
2020/12/12 19:28:34;;;;;;;16.87;15.13;;;8.50;48.30;;;;;;10483890;28;20221;-78
2020/12/12 19:33:36;;;;;;;17.53;15.63;;;8.50;48.20;;;;;;10441200;28;20225;-77
2020/12/12 19:38:41;;;;;;;18.83;16.83;;;8.60;48.30;;;;;;10466816;28;20278;-78
2020/12/12 19:43:44;;;;;;;20.30;17.77;;;8.60;48.40;;;;;;10455058;28;20286;-77
2020/12/12 19:48:47;;;;;;;19.90;17.80;;;8.60;48.30;;;;;;10460996;28;20244;-74
2020/12/12 19:53:50;;;;;;;16.37;14.67;;;8.60;48.20;;;;;;10454066;28;20307;-75
2020/12/12 19:58:53;;;;;;;19.67;17.67;;;8.60;48.30;;;;;;10467720;28;20212;-75
2020/12/12 20:03:55;;;;;;;17.63;15.83;;;8.60;48.20;;;;;;10476664;28;20232;-76
2020/12/12 20:09:02;;;;;;;19.13;16.23;;;8.60;48.20;;;;;;10457398;28;20232;-74
2020/12/12 20:14:04;;;;;;;16.00;14.40;;;8.60;48.30;;;;;;10455308;28;20221;-75
2020/12/12 20:19:08;;;;;;;15.80;14.07;;;8.70;48.20;;;;;;10457476;28;20637;-74
2020/12/12 20:24:11;;;;;;;18.07;15.07;;;8.60;48.20;;;;;;10444823;28;20650;-75
2020/12/12 20:29:13;;;;;;;17.57;15.87;;;8.70;48.30;;;;;;10463618;28;20651;-75
2020/12/12 20:34:16;;;;;;;15.63;13.97;;;8.70;48.30;;;;;;10466579;28;20233;-75
2020/12/12 20:39:19;;;;;;;17.30;15.50;;;8.70;48.90;;;;;;10464629;28;20227;-73
2020/12/12 20:44:21;;;;;;;19.77;17.67;;;8.70;48.30;;;;;;10469193;28;20256;-77
2020/12/12 20:49:24;;;;;;;18.57;16.60;;;8.70;48.20;;;;;;10470859;28;20290;-78
2020/12/12 20:54:27;;;;;;;19.13;17.23;;;8.80;48.20;;;;;;10481657;28;20229;-75
2020/12/12 20:59:30;;;;;;;17.10;15.30;;;8.80;48.20;;;;;;10456845;28;21199;-77
2020/12/12 21:04:33;;;;;;;17.00;15.30;;;8.80;48.30;;;;;;10462363;28;20311;-79
2020/12/12 21:09:40;;;;;;;18.60;16.70;;;8.80;48.30;;;;;;10470871;28;20224;-77
2020/12/12 21:14:44;;;;;;;19.50;17.03;;;8.80;48.20;;;;;;10462581;28;20225;-77
2020/12/12 21:19:46;;;;;;;19.33;17.27;;;8.80;48.20;;;;;;10448033;28;20256;-80
2020/12/12 21:24:54;;;;;;;18.37;16.47;;;8.80;48.20;;;;;;10467179;28;20229;-78
2020/12/12 21:29:56;;;;;;;19.53;16.53;;;8.80;48.40;;;;;;10435463;28;20304;-78
2020/12/12 21:34:59;;;;;;;14.07;12.77;;;8.80;48.40;;;;;;10456413;28;20220;-77
2020/12/12 21:40:04;;;;;;;12.47;11.37;;;8.80;48.40;;;;;;10456317;28;20220;-77
2020/12/12 21:45:08;;;;;;;11.27;10.07;;;8.70;48.70;;;;;;10452828;28;20220;-77
2020/12/12 21:50:12;;;;;;;11.40;10.40;;;8.70;48.90;;;;;;10475142;28;20566;-76
2020/12/12 21:55:16;;;;;;;11.30;10.20;;;8.60;49.00;;;;;;10467111;28;20278;-78
2020/12/12 22:00:18;;;;;;;14.90;12.80;;;8.70;49.30;;;;;;10462708;28;20712;-78
2020/12/12 22:05:26;;;;;;;16.07;13.80;;;8.60;49.10;;;;;;10465380;28;20257;-76
2020/12/12 22:10:30;;;;;;;10.50;9.50;;;8.60;49.30;;;;;;10461538;28;20290;-77
2020/12/12 22:15:33;;;;;;;10.00;9.20;;;8.70;49.50;;;;;;10453705;28;20749;-77
2020/12/12 22:20:35;;;;;;;8.97;8.17;;;8.70;49.40;;;;;;10452327;28;20250;-76
2020/12/12 22:25:40;;;;;;;8.53;7.83;;;8.70;49.40;;;;;;10455424;28;20783;-75
2020/12/12 22:30:43;;;;;;;8.73;8.00;;;8.70;49.70;;;;;;10445175;28;20232;-76
2020/12/12 22:35:45;;;;;;;8.23;7.60;;;8.70;49.50;;;;;;10437808;28;20277;-76
2020/12/12 22:40:48;;;;;;;8.70;7.90;;;8.70;49.60;;;;;;10442821;28;20222;-76
2020/12/12 22:45:50;;;;;;;9.13;8.43;;;8.70;49.70;;;;;;10447584;28;20235;-76
2020/12/12 22:51:13;;;;;;;7.73;7.13;;;8.70;49.40;;;;;;10447815;28;20224;-76
2020/12/12 22:56:19;;;;;;;7.40;6.80;;;8.80;50.20;;;;;;10438208;28;20225;-77
2020/12/12 23:01:21;;;;;;;7.13;6.63;;;8.80;49.70;;;;;;10452304;28;20324;-76
2020/12/12 23:06:24;;;;;;;6.93;6.43;;;8.80;49.30;;;;;;10437653;28;20226;-76
2020/12/12 23:11:27;;;;;;;7.07;6.47;;;8.80;49.20;;;;;;10440878;28;20225;-76
2020/12/12 23:16:30;;;;;;;6.60;6.10;;;8.80;49.20;;;;;;10432897;28;20229;-76
2020/12/12 23:21:32;;;;;;;6.40;5.93;;;8.80;49.10;;;;;;10446134;28;20225;-76
2020/12/12 23:26:35;;;;;;;6.93;6.33;;;8.80;49.20;;;;;;10444549;28;20225;-76
2020/12/12 23:31:38;;;;;;;6.60;6.10;;;8.80;49.30;;;;;;10450884;28;20228;-76
2020/12/12 23:36:40;;;;;;;6.63;6.13;;;8.80;49.30;;;;;;10453334;28;20308;-76
2020/12/12 23:41:44;;;;;;;6.50;6.00;;;8.80;49.20;;;;;;10495369;23;20307;-74
2020/12/12 23:46:46;;;;;;;5.77;5.27;;;8.80;49.20;;;;;;10491191;28;20216;-74
2020/12/12 23:51:50;;;;;;;6.00;5.60;;;8.80;49.80;;;;;;10441286;28;20229;-71
2020/12/12 23:56:53;;;;;;;5.60;5.20;;;8.80;49.20;;;;;;10436642;28;20239;-70
